Capitol Logistics 3262


KMIA
Miami International Airport
Miami, Florida, US
KMCO
Orlando International Airport
Orlando, Florida, US

Activity Log

Date Flight Route Aircraft Duration
11/04/2019 CPX662 HEDLY2 HEDLY J53 PHK BAIRN4 SF34 1h 10m
10/06/2019 CPX662 HEDLY2 HEDLY J53 PHK BAIRN4 SF34 0h 56m
08/24/2019 CPX662 HEDLY2 HEDLY J53 PHK BAIRN4 SF34 1h 06m

Route Details

Aircraft Information
Primary: Saab 340AF
Backup: Not Available
Route Data
Distance: 167nm
Sched. Duration: 1h 25m
Avg. Duration: 0h 91m (-34m)
Times Flown: 3
Recm'd Route: HEDLY2 HEDLY J53 PHK BAIRN4
Planned Altitude: 16,000ft
Origin Wx: KMIA 270053Z 19009KT 10SM -RA BR SCT011 SCT040 OVC100 24/21 A2995 RMK AO2 SLP141 P0016 T02390211 $
Dest. Wx: KMCO 270135Z 30007KT 10SM -RA SCT013 OVC065 18/16 A2996 RMK AO2 P0001 T01830156
Notes:

Financial History
Total Freight: 15,555lbs
Average Load: 5,185lbs/flt
Fuel Used: 3,480lbs
Avg. Fuel Used: 1,160lbs/flt
Fuel Expense: $4,280
Avg. Fuel Expense: $1,427
Avg. Fuel Cost: $1.23/lbs
Total Gross Income: $17,422
Pilot Pay: $447
Total Expenses: $2,038
Total Revenue: $10,498
Average Revenue: $5,807.20